Time;durP1;ratioP1;P1;durP2;ratioP2;P2;SDS_P1;SDS_P2;PMS_P1;PMS_P2;Temp;Humidity;BMP_temperature;BMP_pressure;BME280_temperature;BME280_humidity;BME280_pressure;Samples;Min_cycle;Max_cycle;Signal;HPM_P1;HPM_P2
2022/04/22 00:00:00;;;;;;;14.95;5.95;;;;;;;4.88;100.00;101263.13;5074023;28;20048;-77
2022/04/22 00:02:25;;;;;;;13.68;6.15;;;;;;;4.88;100.00;101257.94;5072098;28;20040;-78
2022/04/22 00:04:51;;;;;;;14.05;5.85;;;;;;;4.83;100.00;101253.97;5075521;28;20464;-77
2022/04/22 00:07:17;;;;;;;11.50;6.05;;;;;;;4.84;100.00;101258.22;5073953;28;20134;-76
2022/04/22 00:09:42;;;;;;;17.73;6.10;;;;;;;4.80;100.00;101251.53;5053813;28;20036;-77
2022/04/22 00:12:09;;;;;;;15.82;6.13;;;;;;;4.81;100.00;101254.06;5052518;28;20386;-77
2022/04/22 00:14:34;;;;;;;12.43;6.28;;;;;;;4.79;100.00;101245.50;5061163;28;20115;-78
2022/04/22 00:17:00;;;;;;;13.93;6.53;;;;;;;4.82;100.00;101249.69;5082226;28;20557;-76
2022/04/22 00:19:26;;;;;;;15.90;7.35;;;;;;;4.74;100.00;101254.53;5090968;28;20059;-77
2022/04/22 00:21:53;;;;;;;13.52;6.68;;;;;;;4.69;100.00;101260.03;5088982;28;20393;-78
2022/04/22 00:24:19;;;;;;;14.02;6.15;;;;;;;4.60;100.00;101245.00;5072621;28;20032;-78
2022/04/22 00:26:44;;;;;;;12.30;6.60;;;;;;;4.52;100.00;101248.09;5089452;28;20059;-78
2022/04/22 00:29:11;;;;;;;17.25;6.28;;;;;;;4.46;100.00;101251.03;5074268;28;20127;-78
2022/04/22 00:31:36;;;;;;;13.82;6.78;;;;;;;4.49;100.00;101233.50;5074173;28;20132;-78
2022/04/22 00:34:02;;;;;;;13.02;6.53;;;;;;;4.53;100.00;101239.34;5090695;28;20687;-78
2022/04/22 00:36:28;;;;;;;10.77;6.18;;;;;;;4.44;100.00;101238.16;5090733;28;20162;-76
2022/04/22 00:38:53;;;;;;;15.18;6.50;;;;;;;4.48;100.00;101244.84;5089197;28;20837;-77
2022/04/22 00:41:19;;;;;;;13.65;6.28;;;;;;;4.50;100.00;101236.94;5070449;28;20047;-77
2022/04/22 00:43:46;;;;;;;17.00;6.53;;;;;;;4.50;100.00;101242.13;5073099;28;20093;-77
2022/04/22 00:46:12;;;;;;;15.77;6.55;;;;;;;4.36;100.00;101231.78;5074178;28;20040;-77
2022/04/22 00:48:38;;;;;;;14.52;6.70;;;;;;;4.28;100.00;101232.25;5089626;28;20032;-78
2022/04/22 00:51:04;;;;;;;13.45;5.82;;;;;;;4.16;100.00;101231.22;5072525;28;20043;-77
2022/04/22 00:53:32;;;;;;;11.63;6.10;;;;;;;4.20;100.00;101232.72;5088150;28;20387;-77
2022/04/22 00:55:58;;;;;;;14.52;6.80;;;;;;;4.18;100.00;101231.97;5070649;28;20045;-78
2022/04/22 00:58:24;;;;;;;14.20;6.63;;;;;;;4.12;100.00;101228.91;5054669;28;20098;-77
2022/04/22 01:00:49;;;;;;;12.52;6.45;;;;;;;4.15;100.00;101220.94;5073327;28;20047;-77
2022/04/22 01:03:15;;;;;;;13.80;6.03;;;;;;;4.13;100.00;101212.41;5087426;28;20109;-77
2022/04/22 01:11:12;;;;;;;10.48;5.78;;;;;;;3.91;100.00;101205.91;5089515;28;20139;-77
2022/04/22 01:13:38;;;;;;;13.35;5.57;;;;;;;3.84;100.00;101212.38;5072667;28;20031;-78
2022/04/22 01:16:04;;;;;;;15.88;6.40;;;;;;;3.79;100.00;101204.88;5090148;28;20385;-77
2022/04/22 01:18:29;;;;;;;16.73;5.97;;;;;;;3.76;100.00;101212.84;5072168;28;20071;-77
2022/04/22 01:21:02;;;;;;;13.05;5.97;;;;;;;3.63;100.00;101201.50;5089405;28;20059;-78
2022/04/22 01:23:28;;;;;;;;;;;;;;;3.72;100.00;101202.75;5087999;28;20061;-77
2022/04/22 01:25:56;;;;;;;13.07;6.22;;;;;;;3.64;100.00;101206.63;5072681;28;19912;-77
2022/04/22 01:28:21;;;;;;;16.73;5.75;;;;;;;3.70;100.00;101201.06;5083146;28;20799;-78
2022/04/22 01:30:48;;;;;;;12.57;6.13;;;;;;;3.69;100.00;101201.16;5073182;28;20107;-78
2022/04/22 01:33:13;;;;;;;9.70;5.50;;;;;;;3.76;100.00;101197.28;5070508;28;20648;-77
2022/04/22 01:35:39;;;;;;;8.75;5.68;;;;;;;3.66;100.00;101194.38;5088510;28;20031;-77
2022/04/22 01:38:05;;;;;;;10.20;6.03;;;;;;;3.49;100.00;101187.59;5070914;28;20382;-77
2022/04/22 01:40:30;;;;;;;13.90;5.85;;;;;;;3.36;100.00;101178.88;5090002;28;20047;-78
2022/04/22 01:42:56;;;;;;;10.00;5.00;;;;;;;3.40;100.00;101193.31;5088185;28;20097;-77
2022/04/22 01:45:21;;;;;;;8.38;5.60;;;;;;;3.41;100.00;101188.97;5072510;28;20066;-78
2022/04/22 01:47:47;;;;;;;18.23;5.95;;;;;;;3.53;100.00;101184.84;5088063;28;20470;-77
2022/04/22 01:50:12;;;;;;;12.18;5.95;;;;;;;3.55;100.00;101177.78;5070673;28;20059;-77
2022/04/22 01:52:40;;;;;;;11.05;5.65;;;;;;;3.70;100.00;101180.31;5071787;28;20112;-76
2022/04/22 01:55:07;;;;;;;9.30;5.53;;;;;;;3.60;100.00;101181.78;5071588;28;20047;-76
2022/04/22 01:57:32;;;;;;;9.73;5.40;;;;;;;3.48;100.00;101177.31;5070432;28;20122;-76
2022/04/22 02:00:01;;;;;;;9.23;5.38;;;;;;;3.48;100.00;101175.56;5088715;28;20163;-77
2022/04/22 02:02:30;;;;;;;10.43;5.18;;;;;;;3.46;100.00;101167.03;5087305;28;20111;-77
2022/04/22 02:04:55;;;;;;;9.50;5.45;;;;;;;3.47;100.00;101176.47;5088934;28;20478;-77
2022/04/22 02:07:21;;;;;;;12.10;5.65;;;;;;;3.43;100.00;101175.00;5084524;28;20059;-77
2022/04/22 02:09:47;;;;;;;11.77;5.45;;;;;;;3.36;100.00;101170.25;5069894;28;20038;-77
2022/04/22 02:12:12;;;;;;;16.70;5.47;;;;;;;3.23;100.00;101168.38;5089687;28;20028;-76
2022/04/22 02:14:38;;;;;;;11.85;5.00;;;;;;;3.18;100.00;101167.78;5088031;28;20555;-77
2022/04/22 02:17:04;;;;;;;10.23;5.20;;;;;;;3.24;100.00;101164.88;5072333;28;20050;-78
2022/04/22 02:19:30;;;;;;;12.80;5.38;;;;;;;3.29;100.00;101162.00;5071831;28;20039;-77
2022/04/22 02:21:56;;;;;;;11.93;5.80;;;;;;;3.25;100.00;101157.91;5074257;28;20098;-75
2022/04/22 02:24:21;;;;;;;11.02;5.40;;;;;;;3.32;100.00;101154.03;5069872;28;20121;-75
2022/04/22 02:29:31;;;;;;;12.10;5.35;;;;;;;3.44;100.00;101148.13;5081684;28;20046;-77
2022/04/22 02:31:57;;;;;;;17.55;6.10;;;;;;;3.49;100.00;101142.69;5079460;28;20044;-77
2022/04/22 02:34:23;;;;;;;9.90;5.72;;;;;;;3.49;100.00;101137.50;5087539;28;20520;-77
2022/04/22 02:36:50;;;;;;;10.95;5.82;;;;;;;3.57;100.00;101145.66;5056030;28;20485;-78
2022/04/22 02:39:16;;;;;;;9.27;5.47;;;;;;;3.74;100.00;101143.81;5086606;28;20361;-77
2022/04/22 02:47:11;;;;;;;15.68;6.00;;;;;;;3.94;100.00;101137.38;5092148;28;20059;-77
2022/04/22 02:49:37;;;;;;;15.50;5.63;;;;;;;3.88;100.00;101133.41;5088127;28;20036;-77
2022/04/22 02:52:03;;;;;;;14.88;6.05;;;;;;;3.95;100.00;101139.06;5071229;28;20036;-76
2022/04/22 02:54:30;;;;;;;12.18;5.63;;;;;;;3.94;100.00;101137.38;5070873;28;20028;-77
2022/04/22 02:56:59;;;;;;;12.85;5.72;;;;;;;3.92;100.00;101137.50;5071420;28;20076;-77
2022/04/22 02:59:25;;;;;;;11.13;5.40;;;;;;;3.93;100.00;101133.97;5070636;28;20036;-76
2022/04/22 03:01:51;;;;;;;14.07;5.57;;;;;;;4.01;100.00;101130.91;5076268;28;20498;-78
2022/04/22 03:04:16;;;;;;;14.65;5.88;;;;;;;4.00;100.00;101124.06;5086581;28;20128;-76
2022/04/22 03:06:43;;;;;;;11.50;5.53;;;;;;;4.06;100.00;101134.88;5070096;28;20049;-77
2022/04/22 03:09:09;;;;;;;10.98;5.20;;;;;;;4.07;100.00;101133.13;5088875;28;20089;-77
2022/04/22 03:11:34;;;;;;;9.85;5.38;;;;;;;4.12;100.00;101132.84;5087896;28;20028;-78
2022/04/22 03:14:05;;;;;;;16.25;5.60;;;;;;;4.02;100.00;101133.41;5082660;28;20568;-77
2022/04/22 03:16:31;;;;;;;13.13;5.03;;;;;;;4.02;100.00;101127.38;5067038;28;20032;-78
2022/04/22 03:18:57;;;;;;;11.57;5.00;;;;;;;4.00;100.00;101126.66;5071681;28;20043;-79
2022/04/22 03:21:23;;;;;;;9.73;5.00;;;;;;;4.01;100.00;101128.31;5051874;28;20832;-78
2022/04/22 03:23:49;;;;;;;11.68;5.32;;;;;;;4.11;100.00;101116.44;5070968;28;20066;-76
2022/04/22 03:26:15;;;;;;;13.02;5.10;;;;;;;4.07;100.00;101120.16;5067703;28;20036;-77
2022/04/22 03:28:41;;;;;;;9.75;4.65;;;;;;;4.00;100.00;101127.47;5071649;28;20039;-77
2022/04/22 03:31:07;;;;;;;12.32;5.28;;;;;;;4.15;100.00;101117.09;5067202;28;20159;-76
2022/04/22 03:33:33;;;;;;;17.02;4.82;;;;;;;3.99;100.00;101115.41;5071358;28;20043;-78
2022/04/22 03:35:59;;;;;;;12.85;5.07;;;;;;;3.90;100.00;101111.66;5070269;28;20036;-77
2022/04/22 03:38:24;;;;;;;10.32;5.35;;;;;;;3.83;100.00;101110.34;5087368;28;20074;-78
2022/04/22 03:40:52;;;;;;;11.15;5.10;;;;;;;3.83;100.00;101101.72;5070742;28;20072;-78
2022/04/22 03:43:20;;;;;;;13.07;5.20;;;;;;;3.80;100.00;101105.34;5073814;28;20028;-77
2022/04/22 03:45:46;;;;;;;18.13;5.75;;;;;;;3.90;100.00;101111.66;5071746;28;20459;-77
2022/04/22 03:48:13;;;;;;;14.85;5.97;;;;;;;3.77;100.00;101099.50;5086425;28;20577;-77
2022/04/22 03:50:39;;;;;;;14.88;5.82;;;;;;;3.87;100.00;101111.81;5080735;28;20040;-77
2022/04/22 03:53:06;;;;;;;14.13;4.95;;;;;;;3.75;100.00;101104.81;5053244;28;20039;-77
2022/04/22 03:55:32;;;;;;;14.73;5.90;;;;;;;3.67;100.00;101094.03;5059859;28;20505;-77
2022/04/22 03:58:11;;;;;;;13.00;5.75;;;;;;;3.68;100.00;101098.31;5071305;28;20405;-78
2022/04/22 04:00:41;;;;;;;10.60;5.05;;;;;;;3.52;100.00;101090.59;5077354;28;20028;-78
2022/04/22 04:03:11;;;;;;;14.48;6.03;;;;;;;3.50;100.00;101095.91;5055320;28;20071;-76
2022/04/22 04:05:38;;;;;;;12.80;5.68;;;;;;;3.50;100.00;101097.66;5086628;28;20065;-78
2022/04/22 04:08:05;;;;;;;19.90;5.88;;;;;;;3.37;100.00;101094.13;5067239;28;20037;-77
2022/04/22 04:16:01;;;;;;;15.63;6.65;;;;;;;3.44;100.00;101087.66;5071294;28;20040;-77
2022/04/22 04:18:29;;;;;;;13.48;5.88;;;;;;;3.54;100.00;101090.53;5085341;28;20371;-77
2022/04/22 04:24:00;;;;;;;17.67;5.95;;;;;;;3.84;100.00;101095.59;5047872;28;20090;-77
2022/04/22 04:26:26;;;;;;;13.23;6.30;;;;;;;3.88;100.00;101090.16;5032301;28;20064;-76
2022/04/22 04:28:52;;;;;;;15.52;6.65;;;;;;;3.97;100.00;101088.72;5031578;28;20699;-78
2022/04/22 04:31:19;;;;;;;17.23;6.55;;;;;;;3.98;100.00;101089.56;5086647;28;20035;-77
2022/04/22 04:33:46;;;;;;;15.63;6.80;;;;;;;3.94;100.00;101085.47;5090997;28;20082;-77
2022/04/22 04:36:12;;;;;;;17.02;6.82;;;;;;;3.95;100.00;101084.56;5088240;28;20035;-77
2022/04/22 04:38:40;;;;;;;18.77;6.93;;;;;;;3.92;100.00;101082.16;5075797;28;20023;-76
2022/04/22 04:41:08;;;;;;;18.88;6.90;;;;;;;4.06;100.00;101087.31;5070419;28;20048;-75
2022/04/22 04:43:34;;;;;;;18.92;7.60;;;;;;;4.00;100.00;101080.75;5076865;28;20115;-77
2022/04/22 04:46:01;;;;;;;21.15;7.75;;;;;;;4.22;100.00;101088.03;5075770;28;20127;-76
2022/04/22 04:48:27;;;;;;;17.27;7.43;;;;;;;4.29;100.00;101085.88;5085235;28;20028;-77
2022/04/22 04:50:54;;;;;;;20.65;8.45;;;;;;;4.34;100.00;101093.38;5082090;28;20034;-77
2022/04/22 04:53:24;;;;;;;18.35;7.47;;;;;;;4.35;100.00;101085.50;5078851;28;20036;-77
2022/04/22 04:55:52;;;;;;;18.27;8.10;;;;;;;4.35;100.00;101079.44;5071035;28;20038;-77
2022/04/22 04:58:21;;;;;;;17.35;7.82;;;;;;;4.46;100.00;101090.84;5086610;28;20040;-77
2022/04/22 05:00:48;;;;;;;18.52;8.40;;;;;;;4.49;100.00;101095.00;5073792;28;20048;-81
2022/04/22 05:03:13;;;;;;;16.20;7.70;;;;;;;4.46;100.00;101082.19;5087467;28;20043;-78
2022/04/22 05:05:39;;;;;;;23.38;8.85;;;;;;;4.54;100.00;101087.75;5079650;28;20131;-77
2022/04/22 05:08:06;;;;;;;21.45;8.88;;;;;;;4.65;100.00;101089.63;5082085;28;20039;-77
2022/04/22 05:10:33;;;;;;;19.77;8.40;;;;;;;4.76;100.00;101094.13;5071432;28;20497;-76
2022/04/22 05:13:00;;;;;;;22.23;8.32;;;;;;;4.78;100.00;101087.06;5072479;28;20032;-77
2022/04/22 05:15:26;;;;;;;21.17;9.57;;;;;;;4.84;100.00;101089.25;5071988;28;20047;-77
2022/04/22 05:17:54;;;;;;;18.17;8.32;;;;;;;4.93;100.00;101088.66;5090048;28;20402;-78
2022/04/22 05:20:21;;;;;;;20.38;9.48;;;;;;;5.08;100.00;101084.22;5088921;28;20490;-78
2022/04/22 05:22:47;;;;;;;17.95;8.35;;;;;;;5.16;100.00;101083.69;5062157;28;20417;-77
2022/04/22 05:25:14;;;;;;;17.27;8.90;;;;;;;5.20;100.00;101080.78;5084668;28;20510;-78
2022/04/22 05:27:40;;;;;;;21.00;9.05;;;;;;;5.23;100.00;101066.75;5054620;28;20032;-79
2022/04/22 05:32:53;;;;;;;18.42;8.73;;;;;;;5.41;100.00;101077.69;5084546;28;20066;-80
2022/04/22 05:35:21;;;;;;;20.85;8.35;;;;;;;5.54;100.00;101075.91;5071287;28;20044;-77
2022/04/22 05:37:51;;;;;;;15.77;8.75;;;;;;;5.66;100.00;101087.22;5072503;28;20058;-78
2022/04/22 05:40:20;;;;;;;15.88;8.20;;;;;;;5.72;100.00;101089.41;5056665;28;20379;-77
2022/04/22 05:42:46;;;;;;;19.98;8.30;;;;;;;5.76;100.00;101090.84;5069973;28;20486;-79
2022/04/22 05:45:13;;;;;;;18.10;8.05;;;;;;;5.92;100.00;101098.44;5069969;28;20042;-78
2022/04/22 05:47:40;;;;;;;15.48;8.07;;;;;;;6.10;100.00;101100.69;5071710;28;20167;-77
2022/04/22 05:50:07;;;;;;;19.98;8.43;;;;;;;6.12;100.00;101085.78;5089519;28;20036;-78
2022/04/22 05:52:33;;;;;;;18.98;7.70;;;;;;;6.17;100.00;101081.91;5089574;28;20030;-77
2022/04/22 05:55:02;;;;;;;17.17;7.47;;;;;;;6.11;100.00;101084.97;5055105;28;20413;-77
2022/04/22 05:57:32;;;;;;;19.50;7.80;;;;;;;6.28;100.00;101088.97;5062058;28;20572;-78
2022/04/22 05:59:59;;;;;;;15.75;7.15;;;;;;;6.42;100.00;101087.97;5092499;28;20621;-78
2022/04/22 06:02:26;;;;;;;18.92;6.75;;;;;;;6.42;100.00;101083.63;5071269;28;20656;-78
2022/04/22 06:04:52;;;;;;;15.32;6.95;;;;;;;6.36;100.00;101076.22;5072809;28;20032;-78
2022/04/22 06:07:19;;;;;;;17.73;7.43;;;;;;;6.45;100.00;101085.16;5089403;28;20032;-78
2022/04/22 06:12:29;;;;;;;16.02;6.85;;;;;;;6.97;100.00;101098.75;5071835;28;20078;-77
2022/04/22 06:14:59;;;;;;;17.23;6.28;;;;;;;6.83;100.00;101087.53;5073407;28;20039;-80
2022/04/22 06:17:29;;;;;;;18.25;6.38;;;;;;;6.90;100.00;101090.53;5068339;28;20028;-79
2022/04/22 06:19:56;;;;;;;15.82;6.97;;;;;;;6.90;100.00;101087.94;5085233;28;20421;-77
2022/04/22 06:22:22;;;;;;;11.33;5.67;;;;;;;6.97;100.00;101089.16;5054755;28;20044;-77
2022/04/22 06:24:47;;;;;;;15.18;5.90;;;;;;;7.05;100.00;101103.41;5089862;28;20473;-77
2022/04/22 06:27:21;;;;;;;15.50;5.78;;;;;;;7.08;100.00;101093.53;5072683;28;20027;-78
2022/04/22 06:29:47;;;;;;;11.85;5.82;;;;;;;7.29;100.00;101098.09;5076375;28;20092;-77
2022/04/22 06:32:13;;;;;;;10.48;5.55;;;;;;;7.27;100.00;101103.44;5091134;28;20036;-79
2022/04/22 06:34:39;;;;;;;16.60;5.22;;;;;;;7.33;100.00;101092.53;5087650;28;20024;-80
2022/04/22 06:37:04;;;;;;;14.45;5.50;;;;;;;7.35;100.00;101072.38;5072155;28;20510;-77
2022/04/22 06:45:46;;;;;;;11.95;5.65;;;;;;;7.37;100.00;101090.53;5073479;28;20614;-76
2022/04/22 06:47:45;;;;;;;14.38;5.50;;;;;;;7.76;100.00;101068.34;5092861;28;20447;-78
2022/04/22 06:50:11;;;;;;;10.38;4.30;;;;;;;7.86;100.00;101068.44;5056446;28;20494;-80
2022/04/22 06:52:37;;;;;;;12.85;4.90;;;;;;;7.88;100.00;101060.50;5083693;28;20036;-78
2022/04/22 06:55:03;;;;;;;10.82;4.53;;;;;;;8.09;100.00;101071.00;5072397;28;20043;-78
2022/04/22 06:57:29;;;;;;;12.52;4.35;;;;;;;8.05;100.00;101057.34;5068098;28;20033;-77
2022/04/22 06:59:55;;;;;;;16.63;4.60;;;;;;;8.23;100.00;101060.28;5054490;28;20486;-78
2022/04/22 07:02:21;;;;;;;10.20;4.65;;;;;;;8.19;100.00;101059.72;5087304;28;20032;-78
2022/04/22 07:04:47;;;;;;;10.00;4.30;;;;;;;8.36;100.00;101057.50;5072723;28;20034;-77
2022/04/22 07:07:13;;;;;;;11.98;4.57;;;;;;;8.50;100.00;101059.03;5089295;28;20102;-78
2022/04/22 07:09:40;;;;;;;15.55;4.50;;;;;;;8.41;100.00;101062.38;5089629;28;20096;-78
2022/04/22 07:12:07;;;;;;;10.05;4.00;;;;;;;8.55;100.00;101062.09;5087114;28;20059;-77
2022/04/22 07:14:32;;;;;;;12.63;4.43;;;;;;;8.83;100.00;101068.50;5064483;28;20059;-77
2022/04/22 07:16:59;;;;;;;17.15;4.35;;;;;;;8.81;100.00;101069.59;5087774;28;20036;-79
2022/04/22 07:19:25;;;;;;;15.00;4.38;;;;;;;9.24;99.05;101073.84;5088202;28;20032;-77
2022/04/22 07:21:51;;;;;;;10.93;4.40;;;;;;;9.20;99.07;101064.59;5087908;28;20543;-77
2022/04/22 07:24:17;;;;;;;9.27;3.88;;;;;;;9.40;98.27;101061.13;5070841;28;20097;-76
2022/04/22 07:26:44;;;;;;;9.77;4.10;;;;;;;9.43;97.64;101071.31;5088794;28;20039;-77
2022/04/22 07:29:12;;;;;;;12.23;4.10;;;;;;;9.42;97.42;101067.06;5069831;28;20127;-77
2022/04/22 07:31:38;;;;;;;10.10;3.85;;;;;;;9.32;96.23;101055.69;5072025;28;20096;-76
2022/04/22 07:34:03;;;;;;;10.30;3.53;;;;;;;9.64;98.47;101057.34;5087415;28;20131;-78
2022/04/22 07:36:29;;;;;;;11.90;3.55;;;;;;;9.66;95.46;101071.97;5071810;28;20058;-76
2022/04/22 07:38:55;;;;;;;14.25;3.83;;;;;;;9.94;96.31;101070.41;5085853;28;20083;-78
2022/04/22 07:41:25;;;;;;;9.00;3.45;;;;;;;10.25;94.50;101078.19;5070198;28;20055;-77
2022/04/22 07:46:49;;;;;;;10.73;3.75;;;;;;;10.31;91.58;101082.91;5064899;28;20065;-77
2022/04/22 07:49:16;;;;;;;8.63;3.55;;;;;;;9.80;93.76;101088.28;5088850;28;20530;-78
2022/04/22 07:51:42;;;;;;;13.10;3.60;;;;;;;9.98;93.16;101065.72;5088538;28;20047;-76
2022/04/22 07:54:08;;;;;;;8.05;3.40;;;;;;;10.13;92.37;101077.50;5086432;28;20028;-77
2022/04/22 07:56:34;;;;;;;11.15;3.28;;;;;;;10.09;91.66;101070.84;5073227;28;20130;-76
2022/04/22 07:58:59;;;;;;;8.45;3.28;;;;;;;10.24;91.35;101068.66;5092041;28;20036;-76
2022/04/22 08:01:25;;;;;;;6.35;3.17;;;;;;;10.47;89.88;101076.28;5076078;28;20036;-77
2022/04/22 08:03:53;;;;;;;7.90;3.30;;;;;;;10.48;88.87;101070.09;5066022;28;20033;-75
2022/04/22 08:06:19;;;;;;;7.80;3.15;;;;;;;10.69;90.25;101069.94;5085185;28;20489;-76
2022/04/22 08:08:46;;;;;;;7.88;3.20;;;;;;;10.87;88.08;101067.44;5089045;28;20024;-78
2022/04/22 08:11:11;;;;;;;8.75;3.42;;;;;;;10.93;88.93;101076.56;5087976;28;20036;-77
2022/04/22 08:13:37;;;;;;;10.10;3.60;;;;;;;11.03;87.53;101066.84;5072264;28;20112;-77
2022/04/22 08:16:03;;;;;;;10.18;3.50;;;;;;;11.18;88.02;101067.25;5089821;28;20028;-77
2022/04/22 08:18:29;;;;;;;11.82;3.58;;;;;;;11.31;88.20;101067.75;5090664;28;20410;-78
2022/04/22 08:20:54;;;;;;;14.65;4.07;;;;;;;11.29;85.99;101065.25;5075633;28;20035;-77
2022/04/22 08:23:21;;;;;;;9.55;3.40;;;;;;;11.01;85.21;101066.19;5096317;28;20108;-78
2022/04/22 08:25:46;;;;;;;8.43;3.35;;;;;;;10.93;87.24;101072.13;5115736;28;20032;-78
2022/04/22 08:28:12;;;;;;;10.70;3.97;;;;;;;10.82;87.19;101075.72;5079521;28;20189;-77
2022/04/22 08:30:37;;;;;;;9.43;3.38;;;;;;;11.19;87.10;101074.97;5085235;28;20043;-79
2022/04/22 08:33:03;;;;;;;11.20;3.53;;;;;;;11.36;86.97;101069.94;5065367;28;20039;-76
2022/04/22 08:35:29;;;;;;;10.27;3.53;;;;;;;11.33;85.56;101076.31;5076364;28;20032;-78
2022/04/22 08:37:55;;;;;;;7.68;3.10;;;;;;;11.31;86.11;101075.63;5091928;28;20039;-78
2022/04/22 08:40:21;;;;;;;10.07;3.38;;;;;;;11.57;84.36;101070.56;5075569;28;20036;-78
2022/04/22 08:42:46;;;;;;;9.32;3.78;;;;;;;11.77;83.56;101063.44;5058824;28;20043;-78
2022/04/22 08:45:12;;;;;;;11.65;3.83;;;;;;;12.07;82.71;101057.06;5091216;28;20039;-78
2022/04/22 08:50:30;;;;;;;7.68;3.65;;;;;;;12.15;83.06;101071.22;5092894;28;20036;-78
2022/04/22 08:53:04;;;;;;;9.15;3.65;;;;;;;11.96;84.00;101059.03;5090027;28;20082;-76
2022/04/22 08:55:32;;;;;;;9.00;3.58;;;;;;;11.83;82.15;101062.00;5091767;28;20083;-77
2022/04/22 08:57:59;;;;;;;8.30;3.35;;;;;;;11.53;83.10;101069.19;5059954;28;20068;-77
2022/04/22 09:00:27;;;;;;;10.43;3.90;;;;;;;11.88;83.29;101067.63;5075769;28;20028;-77
2022/04/22 09:02:59;;;;;;;7.60;3.38;;;;;;;12.09;82.94;101075.28;5074498;28;20115;-76
2022/04/22 09:05:26;;;;;;;9.83;3.80;;;;;;;12.13;83.81;101083.69;5096114;28;20493;-79
2022/04/22 09:07:53;;;;;;;9.57;4.03;;;;;;;12.46;84.67;101079.59;5071908;28;20299;-77
2022/04/22 09:10:19;;;;;;;8.02;3.70;;;;;;;12.73;79.53;101077.84;5073626;28;20028;-77
2022/04/22 09:12:56;;;;;;;10.88;3.90;;;;;;;12.96;81.30;101088.72;5074856;28;20040;-76
2022/04/22 09:15:24;;;;;;;8.85;3.88;;;;;;;12.81;80.22;101083.19;5090725;28;20104;-77
2022/04/22 09:17:50;;;;;;;9.57;3.63;;;;;;;12.82;80.77;101076.94;5074411;28;20032;-77
2022/04/22 09:20:15;;;;;;;7.60;3.88;;;;;;;12.56;82.10;101074.25;5088342;28;20026;-77
2022/04/22 09:22:44;;;;;;;8.10;3.50;;;;;;;12.59;85.02;101071.34;5090643;28;20032;-76
2022/04/22 09:25:10;;;;;;;7.50;3.88;;;;;;;13.16;83.24;101079.63;5105907;28;20048;-79
2022/04/22 09:27:44;;;;;;;11.88;3.53;;;;;;;12.91;80.14;101072.56;5072237;28;20038;-77
2022/04/22 09:30:12;;;;;;;8.65;4.05;;;;;;;12.94;81.25;101070.47;5073339;28;20043;-78
2022/04/22 09:32:40;;;;;;;8.20;3.80;;;;;;;13.21;80.82;101066.84;5075475;28;20028;-80
2022/04/22 09:35:16;;;;;;;9.45;4.25;;;;;;;13.43;79.16;101069.97;5090558;28;20047;-79
2022/04/22 09:43:32;;;;;;;13.38;4.70;;;;;;;13.81;77.12;101063.34;5086843;28;20031;-78
2022/04/22 09:45:58;;;;;;;10.63;4.40;;;;;;;13.99;75.80;101046.59;5074267;28;20040;-78
2022/04/22 09:48:23;;;;;;;13.25;4.68;;;;;;;13.41;76.99;101064.84;5070131;28;20028;-77
2022/04/22 09:50:53;;;;;;;10.70;5.03;;;;;;;13.77;78.76;101063.84;5073503;28;20058;-77
2022/04/22 09:53:33;;;;;;;10.85;3.90;;;;;;;13.98;76.83;101051.03;5078370;28;20032;-77
2022/04/22 09:56:05;;;;;;;8.27;3.85;;;;;;;14.25;75.53;101049.09;5073832;28;20080;-77
2022/04/22 09:58:31;;;;;;;9.82;4.40;;;;;;;14.73;73.64;101044.88;5060578;28;20040;-78
2022/04/22 10:01:00;;;;;;;11.63;5.03;;;;;;;14.52;71.03;101045.34;5100357;28;20040;-76
2022/04/22 10:03:34;;;;;;;8.02;4.20;;;;;;;14.68;72.84;101043.72;5081397;28;20040;-78
2022/04/22 10:06:01;;;;;;;9.25;4.20;;;;;;;14.96;69.44;101047.66;5095075;28;20116;-77
2022/04/22 10:08:30;;;;;;;9.98;4.10;;;;;;;15.10;68.90;101047.94;5078154;28;20043;-78
2022/04/22 10:11:00;;;;;;;9.48;4.53;;;;;;;14.72;68.99;101042.41;5075792;28;20107;-78
2022/04/22 10:13:33;;;;;;;9.85;4.50;;;;;;;14.23;70.50;101045.00;5091602;28;20506;-78
2022/04/22 10:15:59;;;;;;;10.57;4.55;;;;;;;14.12;70.88;101025.03;5076209;28;20066;-77
2022/04/22 10:18:26;;;;;;;13.85;4.60;;;;;;;13.61;73.60;101041.69;5073497;28;20071;-77
2022/04/22 10:20:54;;;;;;;11.25;4.90;;;;;;;13.31;74.16;101034.31;5074693;28;20036;-78
2022/04/22 10:23:19;;;;;;;8.90;3.83;;;;;;;13.16;75.60;101037.50;5088879;28;20093;-78
2022/04/22 10:25:45;;;;;;;12.55;4.40;;;;;;;12.76;76.33;101023.09;5085809;28;20032;-79
2022/04/22 10:28:12;;;;;;;10.93;4.32;;;;;;;12.92;76.76;101050.50;5089191;28;20647;-77
2022/04/22 10:30:43;;;;;;;9.07;4.47;;;;;;;13.21;77.44;101053.66;5071174;28;20044;-78
2022/04/22 10:33:12;;;;;;;12.63;4.60;;;;;;;13.05;76.56;101056.19;5088376;28;20032;-78
2022/04/22 10:35:40;;;;;;;10.07;4.55;;;;;;;12.73;77.43;101051.53;5089925;28;20024;-76
2022/04/22 10:38:09;;;;;;;10.20;5.15;;;;;;;12.70;75.50;101050.03;5071852;28;20097;-77
2022/04/22 10:40:35;;;;;;;11.65;4.47;;;;;;;12.61;74.57;101049.13;5066788;28;20600;-78
2022/04/22 10:43:02;;;;;;;8.65;4.18;;;;;;;13.00;74.94;101047.94;5071169;28;20123;-77
2022/04/22 10:48:20;;;;;;;11.63;4.50;;;;;;;13.78;70.51;101052.31;5087879;28;20039;-78
2022/04/22 10:50:58;;;;;;;9.90;4.20;;;;;;;13.97;71.65;101049.38;5071693;28;20027;-77
2022/04/22 10:53:27;;;;;;;12.05;4.60;;;;;;;13.60;72.64;101055.88;5085795;28;20051;-76
2022/04/22 10:56:14;;;;;;;14.60;4.28;;;;;;;13.83;69.90;101060.56;5072168;28;20036;-77
2022/04/22 10:58:39;;;;;;;8.82;4.07;;;;;;;13.23;71.87;101048.25;5070421;28;20114;-77
2022/04/22 11:01:05;;;;;;;7.78;3.50;;;;;;;13.60;71.36;101047.16;5085895;28;20123;-78
2022/04/22 11:03:34;;;;;;;8.10;3.95;;;;;;;13.75;70.52;101055.25;5070549;28;20040;-76
2022/04/22 11:06:07;;;;;;;12.63;4.10;;;;;;;13.59;72.39;101048.13;5088102;28;20048;-78
2022/04/22 11:08:32;;;;;;;;;;;;;;;13.52;71.04;101061.09;5065322;28;20043;-78
2022/04/22 11:11:04;;;;;;;12.63;4.10;;;;;;;13.22;72.44;101047.44;5100921;28;20018;-77
2022/04/22 11:13:50;;;;;;;8.73;4.50;;;;;;;13.69;70.79;101055.88;5070969;28;20024;-76
2022/04/22 11:16:32;;;;;;;5.68;3.28;;;;;;;13.78;71.48;101061.03;5051071;28;20040;-77
2022/04/22 11:19:17;;;;;;;10.73;4.22;;;;;;;13.75;71.96;101055.25;5083816;28;20033;-78
2022/04/22 11:21:44;;;;;;;10.65;3.85;;;;;;;13.89;70.77;101059.91;5096766;28;20046;-78
2022/04/22 11:24:15;;;;;;;8.52;3.90;;;;;;;13.74;71.73;101050.97;5076877;28;20046;-77
2022/04/22 11:26:45;;;;;;;8.63;3.40;;;;;;;13.82;71.72;101056.25;5087046;28;20023;-78
2022/04/22 11:29:12;;;;;;;10.70;3.80;;;;;;;13.74;72.34;101043.06;5087434;28;20036;-77
2022/04/22 11:31:38;;;;;;;10.43;3.67;;;;;;;14.10;71.12;101040.19;5084290;28;20043;-77
2022/04/22 11:34:17;;;;;;;8.48;3.70;;;;;;;14.27;69.80;101044.50;5063734;28;20032;-76
2022/04/22 11:36:49;;;;;;;15.35;3.58;;;;;;;14.37;69.71;101050.47;5070503;28;20051;-77
2022/04/22 11:39:17;;;;;;;9.40;4.13;;;;;;;13.69;72.99;101051.44;5085624;28;20117;-76
2022/04/22 11:42:00;;;;;;;10.90;3.80;;;;;;;13.74;71.07;101048.34;5088975;28;20094;-76
2022/04/22 11:44:27;;;;;;;9.95;4.00;;;;;;;13.58;72.23;101049.09;5070434;28;20358;-78
2022/04/22 11:46:54;;;;;;;10.20;3.85;;;;;;;13.75;72.60;101039.44;5088480;28;20041;-75
2022/04/22 11:49:29;;;;;;;9.80;3.70;;;;;;;13.78;73.39;101039.13;5093618;28;20032;-77
2022/04/22 11:51:55;;;;;;;13.25;3.72;;;;;;;14.05;72.50;101035.38;5075763;28;20055;-76
2022/04/22 11:54:25;;;;;;;6.53;4.30;;;;;;;14.44;70.65;101028.69;5092129;28;20040;-77
2022/04/22 11:56:51;;;;;;;10.45;3.55;;;;;;;14.63;69.48;101032.81;5075925;28;20395;-77
2022/04/22 11:59:22;;;;;;;10.32;3.80;;;;;;;15.41;69.41;101034.81;5089509;28;20032;-78
2022/04/22 12:10:03;;;;;;;9.23;3.40;;;;;;;15.80;64.16;101031.34;5076074;28;20043;-76
2022/04/22 12:12:33;;;;;;;11.50;3.97;;;;;;;15.79;64.38;101029.72;5091977;28;20577;-76
2022/04/22 12:15:04;;;;;;;7.03;3.25;;;;;;;15.81;64.31;101025.06;5073351;28;20028;-77